Time;durP1;ratioP1;P1;durP2;ratioP2;P2;SDS_P1;SDS_P2;PMS_P1;PMS_P2;Temp;Humidity;BMP_temperature;BMP_pressure;BME280_temperature;BME280_humidity;BME280_pressure;Samples;Min_cycle;Max_cycle;Signal;HPM_P1;HPM_P2
2021/05/29 00:01:18;;;;;;;7.40;5.10;;;15.50;99.90;;;;;;4994954;28;20572;-82
2021/05/29 00:03:47;;;;;;;7.77;5.53;;;15.50;99.90;;;;;;5008197;28;20207;-82
2021/05/29 00:06:16;;;;;;;6.97;4.60;;;15.40;1.00;;;;;;4994937;28;20165;-83
2021/05/29 00:08:42;;;;;;;6.80;5.10;;;15.50;99.90;;;;;;4993873;28;20236;-83
2021/05/29 00:11:08;;;;;;;9.27;5.40;;;15.40;1.00;;;;;;4994631;28;20187;-82
2021/05/29 00:13:35;;;;;;;7.30;5.57;;;15.30;1.00;;;;;;4995006;28;20163;-82
2021/05/29 00:16:04;;;;;;;8.73;5.13;;;15.30;1.00;;;;;;4993609;28;20167;-82
2021/05/29 00:18:40;;;;;;;9.50;5.60;;;15.30;1.00;;;;;;4994079;28;20166;-83
2021/05/29 00:21:07;;;;;;;6.90;5.47;;;15.30;54.70;;;;;;4994395;28;20171;-82
2021/05/29 00:23:33;;;;;;;7.87;5.37;;;15.30;99.90;;;;;;4992872;28;20206;-83
2021/05/29 00:26:05;;;;;;;8.33;5.43;;;15.30;99.90;;;;;;4994263;28;20171;-82
2021/05/29 00:28:31;;;;;;;7.97;5.43;;;15.30;99.90;;;;;;4992636;28;20179;-82
2021/05/29 00:30:57;;;;;;;6.20;4.93;;;15.30;99.90;;;;;;4994111;28;20225;-82
2021/05/29 00:33:28;;;;;;;8.33;6.13;;;15.30;99.90;;;;;;4993976;28;20171;-83
2021/05/29 00:35:55;;;;;;;9.03;5.97;;;15.40;99.90;;;;;;4997312;28;20168;-83
2021/05/29 00:38:21;;;;;;;10.13;5.33;;;15.40;1.00;;;;;;4997896;28;20171;-83
2021/05/29 00:40:47;;;;;;;7.80;5.23;;;15.40;29.40;;;;;;4997952;28;20271;-82
2021/05/29 00:43:14;;;;;;;7.83;4.93;;;15.60;1.00;;;;;;4998865;28;20203;-84
2021/05/29 00:45:45;;;;;;;8.37;5.30;;;15.60;1.00;;;;;;4998975;28;20163;-82
2021/05/29 00:48:11;;;;;;;7.80;5.23;;;15.70;1.00;;;;;;4998354;28;20215;-83
2021/05/29 00:50:47;;;;;;;8.63;6.17;;;15.70;1.00;;;;;;4997865;28;20225;-83
2021/05/29 00:53:15;;;;;;;7.20;5.73;;;15.70;1.00;;;;;;5013316;28;20186;-83
2021/05/29 00:55:41;;;;;;;10.70;5.50;;;15.70;1.00;;;;;;4997614;28;20266;-82
2021/05/29 00:58:10;;;;;;;8.53;5.20;;;15.70;1.00;;;;;;4997673;28;20180;-82
2021/05/29 01:00:37;;;;;;;8.03;5.87;;;15.60;1.00;;;;;;4998129;28;20238;-84
2021/05/29 01:03:03;;;;;;;6.73;5.10;;;15.60;13.70;;;;;;4998358;28;20273;-82
2021/05/29 01:05:56;;;;;;;9.30;5.47;;;15.70;1.00;;;;;;4999494;28;20228;-82
2021/05/29 01:08:45;;;;;;;6.60;5.07;;;15.70;1.00;;;;;;5004657;28;20186;-82
2021/05/29 01:11:11;;;;;;;7.50;5.53;;;15.70;1.00;;;;;;5007208;28;20260;-82
2021/05/29 01:13:38;;;;;;;7.93;5.43;;;15.70;1.00;;;;;;4997598;28;20181;-81
2021/05/29 01:16:42;;;;;;;7.47;5.13;;;15.50;1.00;;;;;;4996562;28;20171;-83
2021/05/29 01:19:06;;;;;;;7.20;5.30;;;15.70;1.00;;;;;;4997315;28;20170;-83
2021/05/29 01:21:38;;;;;;;6.87;4.63;;;15.70;1.00;;;;;;4997155;28;20179;-82
2021/05/29 01:24:04;;;;;;;7.67;5.20;;;15.50;86.00;;;;;;5012271;28;20322;-82
2021/05/29 01:27:06;;;;;;;8.47;5.53;;;15.50;99.90;;;;;;5006046;28;20171;-82
2021/05/29 01:29:34;;;;;;;7.80;5.43;;;15.50;43.20;;;;;;5013676;28;20245;-82
2021/05/29 01:32:05;;;;;;;6.93;5.57;;;15.60;99.90;;;;;;5001049;28;20167;-82
2021/05/29 01:34:34;;;;;;;8.07;5.50;;;15.70;92.10;;;;;;5000655;28;20693;-81
2021/05/29 01:37:07;;;;;;;9.53;5.10;;;15.70;1.00;;;;;;5002626;28;20163;-83
2021/05/29 01:39:42;;;;;;;5.97;5.17;;;15.50;1.00;;;;;;5000957;28;20178;-82
2021/05/29 01:42:14;;;;;;;8.03;5.23;;;15.40;99.90;;;;;;5014248;28;20272;-82
2021/05/29 01:44:43;;;;;;;7.93;6.03;;;15.30;1.00;;;;;;4998059;28;20268;-82
2021/05/29 01:47:14;;;;;;;9.03;6.60;;;15.10;99.90;;;;;;5016317;28;20179;-82
2021/05/29 01:49:40;;;;;;;9.27;7.00;;;14.80;99.90;;;;;;5011460;28;20694;-83
2021/05/29 01:52:36;;;;;;;11.43;6.77;;;14.70;1.00;;;;;;4997426;28;20599;-82
2021/05/29 01:55:06;;;;;;;10.63;7.43;;;14.50;1.00;;;;;;4997126;28;20183;-82
2021/05/29 01:57:35;;;;;;;10.50;6.93;;;14.50;10.40;;;;;;4997030;28;20172;-82
2021/05/29 02:00:01;;;;;;;11.40;7.50;;;14.30;84.60;;;;;;4996637;28;20171;-82
2021/05/29 02:02:29;;;;;;;8.60;6.60;;;14.20;1.00;;;;;;4996361;28;20170;-82
2021/05/29 02:05:22;;;;;;;11.57;7.53;;;14.10;99.90;;;;;;4995215;28;20218;-82
2021/05/29 02:08:00;;;;;;;9.00;7.27;;;14.00;1.00;;;;;;4996216;28;20210;-82
2021/05/29 02:10:31;;;;;;;10.90;7.93;;;14.00;1.00;;;;;;4996527;28;20202;-82
2021/05/29 02:13:13;;;;;;;9.37;7.07;;;14.00;99.90;;;;;;4996568;28;20306;-82
2021/05/29 02:16:08;;;;;;;11.10;7.70;;;13.90;37.10;;;;;;4995738;28;20168;-82
2021/05/29 02:18:53;;;;;;;10.97;7.60;;;13.80;99.90;;;;;;4996246;28;20160;-82
2021/05/29 02:21:19;;;;;;;9.90;7.00;;;13.80;1.00;;;;;;4996210;28;20163;-82
2021/05/29 02:23:47;;;;;;;8.43;7.03;;;13.80;99.90;;;;;;4995827;28;20659;-82
2021/05/29 02:26:21;;;;;;;9.60;7.50;;;13.80;99.90;;;;;;4994955;28;20171;-82
2021/05/29 02:29:00;;;;;;;8.90;7.30;;;13.90;1.00;;;;;;4994906;28;20182;-82
2021/05/29 02:31:49;;;;;;;10.50;7.10;;;13.90;99.90;;;;;;5010640;28;20170;-82
2021/05/29 02:37:19;;;;;;;10.97;7.07;;;14.00;87.80;;;;;;4979653;28;20654;-82
2021/05/29 02:40:18;;;;;;;9.53;6.77;;;13.90;27.50;;;;;;4995904;28;20175;-82
2021/05/29 02:43:01;;;;;;;10.73;7.80;;;13.90;99.90;;;;;;4995553;28;20178;-82
2021/05/29 02:49:16;;;;;;;10.90;7.00;;;13.80;99.90;;;;;;5005356;28;20489;-81
2021/05/29 02:59:04;;;;;;;;;;;;;;;;;;;;;
2021/05/29 03:06:16;;;;;;;;;;;;;;;;;;;;;
2021/05/29 03:12:41;;;;;;;9.73;7.70;;;13.00;99.90;;;;;;5011501;28;20550;-82
2021/05/29 03:15:56;;;;;;;10.83;7.30;;;13.00;99.90;;;;;;5011759;28;20185;-82
2021/05/29 03:25:48;;;;;;;;;;;;;;;;;;;;;
2021/05/29 03:31:36;;;;;;;11.57;8.00;;;12.90;1.00;;;;;;4986559;28;20181;-82
2021/05/29 03:34:12;;;;;;;11.23;8.90;;;12.90;1.00;;;;;;4997272;28;20194;-82
2021/05/29 03:37:14;;;;;;;;;;;;;;;;;;;;;
2021/05/29 03:41:12;;;;;;;9.10;7.77;;;12.90;1.00;;;;;;4994393;28;20537;-82
2021/05/29 03:44:26;;;;;;;;;;;;;;;;;;;;;
2021/05/29 03:47:40;;;;;;;11.97;8.70;;;12.90;1.00;;;;;;4952270;29;20539;-82
2021/05/29 03:54:11;;;;;;;;;;;;;;;;;;;;;
2021/05/29 04:01:15;;;;;;;19.30;14.23;;;12.40;1.00;;;;;;4879047;29;20715;-82
2021/05/29 04:04:23;;;;;;;;;;;;;;;;;;;;;
2021/05/29 04:07:39;;;;;;;17.43;13.87;;;12.40;1.00;;;;;;4896204;29;20279;-82
2021/05/29 04:14:17;;;;;;;13.63;11.40;;;12.50;1.00;;;;;;4941091;28;20175;-82
2021/05/29 04:17:50;;;;;;;17.07;10.87;;;12.50;1.00;;;;;;4996024;28;20561;-81
2021/05/29 04:20:55;;;;;;;12.50;10.43;;;12.40;1.00;;;;;;4964326;28;20889;-80
2021/05/29 04:27:36;;;;;;;;;;;;;;;;;;;;;
2021/05/29 04:33:43;;;;;;;11.93;9.60;;;12.70;1.00;;;;;;5001581;28;20178;-83
2021/05/29 04:37:13;;;;;;;10.83;8.97;;;12.80;1.00;;;;;;4994761;28;20179;-83
2021/05/29 04:43:52;;;;;;;;;;;;;;;;;;;;;
2021/05/29 04:46:26;;;;;;;9.53;8.53;;;12.90;1.00;;;;;;4968304;29;20211;-83
2021/05/29 04:49:31;;;;;;;;;;;;;;;;;;;;;
2021/05/29 05:03:07;;;;;;;12.17;8.77;;;13.00;1.00;;;;;;4934355;29;20181;-82
2021/05/29 05:06:08;;;;;;;;;;;;;;;;;;;;;
2021/05/29 05:15:51;;;;;;;10.60;8.83;;;13.50;1.00;;;;;;4920592;29;20228;-84
2021/05/29 05:29:22;;;;;;;12.80;9.37;;;14.00;99.90;;;;;;4753974;30;20192;-83
2021/05/29 05:42:37;;;;;;;10.30;8.83;;;14.10;99.90;;;;;;4771753;30;20171;-83
2021/05/29 05:45:38;;;;;;;10.53;9.23;;;14.20;99.90;;;;;;4777484;29;20248;-83
2021/05/29 05:48:43;;;;;;;11.73;9.67;;;14.20;57.30;;;;;;4829095;29;20191;-83
2021/05/29 05:51:36;;;;;;;10.13;8.93;;;14.30;13.80;;;;;;4839396;29;20188;-84
2021/05/29 05:56:58;;;;;;;12.00;8.67;;;14.30;1.00;;;;;;4843035;29;20188;-81
2021/05/29 05:59:24;;;;;;;10.80;9.37;;;14.50;1.00;;;;;;4957546;28;20191;-83
2021/05/29 06:01:56;;;;;;;11.33;9.20;;;14.30;1.00;;;;;;4995934;28;20540;-83
2021/05/29 06:04:43;;;;;;;14.07;9.73;;;14.40;1.00;;;;;;4996360;28;20742;-83
2021/05/29 06:07:20;;;;;;;10.53;8.63;;;14.50;1.00;;;;;;4995060;28;20184;-83
2021/05/29 06:09:57;;;;;;;12.97;9.60;;;14.60;1.00;;;;;;4998248;28;20278;-83
2021/05/29 06:13:03;;;;;;;14.43;8.43;;;14.70;1.00;;;;;;4999226;28;20566;-84
2021/05/29 06:21:04;;;;;;;11.50;8.63;;;14.90;1.00;;;;;;4996379;28;20232;-83
2021/05/29 06:23:39;;;;;;;10.57;9.40;;;15.10;1.00;;;;;;5011168;28;20293;-83
2021/05/29 06:26:05;;;;;;;11.67;8.83;;;15.10;19.00;;;;;;4997293;28;20199;-83
2021/05/29 06:28:31;;;;;;;10.30;8.90;;;15.10;93.00;;;;;;4998118;28;20164;-83
2021/05/29 06:31:13;;;;;;;10.40;9.13;;;15.20;1.00;;;;;;5012663;28;20665;-83
2021/05/29 06:34:01;;;;;;;11.03;8.77;;;15.50;1.00;;;;;;4995347;28;20192;-84
2021/05/29 06:36:28;;;;;;;10.37;8.03;;;15.60;99.90;;;;;;5014021;28;20189;-82
2021/05/29 06:39:32;;;;;;;8.13;6.10;;;15.80;1.00;;;;;;5002262;28;20287;-84
2021/05/29 06:41:57;;;;;;;8.63;7.33;;;15.80;1.00;;;;;;4999616;28;20195;-84
2021/05/29 06:44:23;;;;;;;13.27;9.03;;;15.90;19.60;;;;;;5000917;28;20227;-84
2021/05/29 06:46:55;;;;;;;9.93;8.00;;;16.00;99.90;;;;;;4999959;28;20208;-83
2021/05/29 06:49:24;;;;;;;12.10;8.27;;;16.00;99.90;;;;;;5017434;28;20179;-84
2021/05/29 06:52:04;;;;;;;11.63;8.87;;;15.90;99.90;;;;;;4995078;28;20202;-83
2021/05/29 06:59:53;;;;;;;9.73;8.37;;;15.80;1.00;;;;;;4996791;28;20186;-83
2021/05/29 07:02:19;;;;;;;9.67;8.67;;;15.90;99.90;;;;;;4996516;28;20450;-83
2021/05/29 07:05:13;;;;;;;;;;;;;;;;;;;;;
2021/05/29 07:07:39;;;;;;;13.03;8.77;;;15.90;99.90;;;;;;4997553;28;20927;-83
2021/05/29 07:10:09;;;;;;;10.33;9.00;;;15.90;1.00;;;;;;4997258;28;20207;-84
2021/05/29 07:12:40;;;;;;;16.83;10.00;;;15.80;1.00;;;;;;4995539;28;20632;-83
2021/05/29 07:15:18;;;;;;;9.83;7.80;;;15.80;1.00;;;;;;4993989;28;20230;-83
2021/05/29 07:17:53;;;;;;;9.83;8.47;;;15.80;99.90;;;;;;4994703;28;20170;-83
2021/05/29 07:20:19;;;;;;;11.43;8.53;;;15.80;81.60;;;;;;4996505;28;20565;-78
2021/05/29 07:22:45;;;;;;;10.83;9.40;;;16.00;1.00;;;;;;4994604;28;20180;-77
2021/05/29 07:25:11;;;;;;;11.70;9.43;;;16.00;99.90;;;;;;4994248;28;20279;-78
2021/05/29 07:27:37;;;;;;;12.73;8.90;;;16.00;99.90;;;;;;5010076;28;20185;-77
2021/05/29 07:30:07;;;;;;;10.30;8.50;;;16.20;99.90;;;;;;4995590;28;20179;-78
2021/05/29 07:32:36;;;;;;;10.53;8.17;;;16.30;99.90;;;;;;4994845;28;20167;-78
2021/05/29 07:35:03;;;;;;;13.37;8.50;;;16.40;1.00;;;;;;4999088;28;20175;-80
2021/05/29 07:37:29;;;;;;;8.70;7.80;;;16.40;99.90;;;;;;5004127;28;20184;-76
2021/05/29 07:39:54;;;;;;;10.10;8.37;;;16.50;1.00;;;;;;4990659;28;20190;-76
2021/05/29 07:42:20;;;;;;;11.37;8.77;;;16.50;1.00;;;;;;4974372;28;20205;-78
2021/05/29 07:44:47;;;;;;;10.20;7.50;;;16.60;99.90;;;;;;4983047;28;20207;-79
2021/05/29 07:47:12;;;;;;;8.63;7.53;;;16.70;1.00;;;;;;4992254;28;20258;-78
2021/05/29 07:49:38;;;;;;;11.30;7.90;;;16.80;1.00;;;;;;4994860;28;20669;-78
2021/05/29 07:52:04;;;;;;;11.53;7.93;;;16.90;99.90;;;;;;4993810;28;20635;-82
2021/05/29 07:54:33;;;;;;;9.43;8.03;;;16.90;99.90;;;;;;4988118;28;20246;-82
2021/05/29 07:56:58;;;;;;;10.60;7.43;;;17.00;99.90;;;;;;4990334;28;20593;-82
2021/05/29 07:59:24;;;;;;;11.10;8.03;;;17.00;1.00;;;;;;4995329;28;20221;-82
2021/05/29 08:01:51;;;;;;;8.07;5.70;;;17.00;99.90;;;;;;5012783;28;20212;-81
2021/05/29 08:04:17;;;;;;;8.23;6.30;;;17.10;99.90;;;;;;5011808;28;20218;-82
2021/05/29 08:06:44;;;;;;;8.07;6.90;;;17.10;99.90;;;;;;5011545;28;20194;-82
2021/05/29 08:09:09;;;;;;;7.93;7.13;;;17.30;99.90;;;;;;5012942;28;20186;-82
2021/05/29 08:11:37;;;;;;;8.03;7.03;;;17.40;99.90;;;;;;5013266;28;20189;-81
2021/05/29 08:14:03;;;;;;;9.90;6.60;;;17.50;76.70;;;;;;5013107;28;20232;-84
2021/05/29 08:16:29;;;;;;;8.93;6.13;;;17.70;1.60;;;;;;5012901;28;20201;-82
2021/05/29 08:18:55;;;;;;;7.70;6.90;;;17.60;1.00;;;;;;5013249;28;20174;-82
2021/05/29 08:21:22;;;;;;;12.17;6.23;;;17.60;99.90;;;;;;5012593;28;20178;-83
2021/05/29 08:23:48;;;;;;;8.93;7.00;;;17.60;99.90;;;;;;5013357;28;20217;-82
2021/05/29 08:26:14;;;;;;;9.10;6.57;;;17.70;99.90;;;;;;5013446;28;20170;-82
2021/05/29 08:28:40;;;;;;;8.93;6.77;;;17.90;1.00;;;;;;5011065;28;20233;-82
2021/05/29 08:31:06;;;;;;;8.43;6.53;;;17.80;99.90;;;;;;5012886;28;20171;-82
2021/05/29 08:33:32;;;;;;;8.70;6.73;;;18.00;99.90;;;;;;5013153;28;20184;-81
2021/05/29 08:35:57;;;;;;;7.10;5.30;;;18.20;1.00;;;;;;5012475;28;20243;-82
2021/05/29 08:38:24;;;;;;;7.57;5.47;;;18.20;1.00;;;;;;5012054;28;20209;-82
2021/05/29 08:40:50;;;;;;;8.63;5.73;;;18.30;83.80;;;;;;5007757;28;20651;-82
2021/05/29 08:43:16;;;;;;;8.93;6.13;;;18.40;1.00;;;;;;4996412;28;20214;-82
2021/05/29 08:45:44;;;;;;;8.20;5.90;;;18.50;99.90;;;;;;5017217;28;20175;-81
2021/05/29 08:48:10;;;;;;;6.97;4.73;;;18.60;99.90;;;;;;5014562;28;20211;-82
2021/05/29 08:50:37;;;;;;;7.73;4.63;;;18.60;99.90;;;;;;5013255;28;20177;-82
2021/05/29 08:53:03;;;;;;;6.23;4.30;;;18.50;3.00;;;;;;5013093;28;20171;-82
2021/05/29 08:55:29;;;;;;;7.00;5.13;;;18.70;99.90;;;;;;5014024;28;20185;-82
2021/05/29 08:57:55;;;;;;;5.03;4.20;;;18.70;99.90;;;;;;5015739;28;20718;-80
2021/05/29 09:00:24;;;;;;;4.37;3.70;;;18.60;1.00;;;;;;5014833;28;20170;-82
2021/05/29 09:03:05;;;;;;;5.30;3.50;;;18.60;1.00;;;;;;5015804;28;20782;-80
2021/05/29 09:05:42;;;;;;;7.20;3.90;;;18.60;1.00;;;;;;5015847;28;20261;-80
2021/05/29 09:08:10;;;;;;;5.60;3.53;;;18.70;1.00;;;;;;5008906;28;20198;-80
2021/05/29 09:10:41;;;;;;;9.10;3.30;;;18.70;1.00;;;;;;5008233;28;20278;-79
2021/05/29 09:13:14;;;;;;;5.60;4.17;;;18.90;1.00;;;;;;5004647;28;20664;-78
2021/05/29 09:16:03;;;;;;;5.53;3.97;;;18.70;1.00;;;;;;4996772;28;20203;-79
2021/05/29 09:18:38;;;;;;;8.20;4.67;;;18.60;1.00;;;;;;5006686;28;20175;-79
2021/05/29 09:21:29;;;;;;;6.10;4.23;;;18.70;1.00;;;;;;4997318;28;20198;-79
2021/05/29 09:24:15;;;;;;;6.53;4.20;;;18.70;1.00;;;;;;4996515;28;20209;-79
2021/05/29 09:26:47;;;;;;;5.40;4.13;;;18.70;1.00;;;;;;5015758;28;20189;-78
2021/05/29 09:29:24;;;;;;;6.63;4.63;;;18.80;1.00;;;;;;5010215;28;20662;-79
2021/05/29 09:32:03;;;;;;;5.37;4.07;;;18.70;1.00;;;;;;4992400;28;20206;-78
2021/05/29 09:34:32;;;;;;;7.03;4.27;;;18.60;1.00;;;;;;4994811;28;20174;-79
2021/05/29 09:37:05;;;;;;;6.40;4.10;;;18.50;1.00;;;;;;4994741;28;20183;-79
2021/05/29 09:39:31;;;;;;;4.80;3.80;;;18.60;1.00;;;;;;4995730;28;20172;-79
2021/05/29 09:42:00;;;;;;;5.03;4.00;;;18.70;1.00;;;;;;4999236;28;20173;-80
2021/05/29 09:44:28;;;;;;;7.53;4.10;;;18.70;1.00;;;;;;5000274;28;20211;-78
2021/05/29 09:46:59;;;;;;;5.43;4.20;;;19.10;1.00;;;;;;4996892;28;20179;-80
2021/05/29 09:49:53;;;;;;;5.87;3.80;;;19.20;1.00;;;;;;4998921;28;20167;-78
2021/05/29 09:52:39;;;;;;;4.40;3.20;;;19.30;1.00;;;;;;5009085;28;20721;-80
2021/05/29 09:55:10;;;;;;;4.63;3.60;;;19.40;1.00;;;;;;5015803;28;20170;-78
2021/05/29 09:57:59;;;;;;;5.50;4.50;;;19.50;1.00;;;;;;5016761;28;20174;-79
2021/05/29 10:00:39;;;;;;;6.23;4.40;;;19.60;1.00;;;;;;5016682;28;20170;-80
2021/05/29 10:03:06;;;;;;;6.90;4.67;;;19.50;1.00;;;;;;5015765;28;20166;-80
2021/05/29 10:05:40;;;;;;;4.43;3.00;;;19.20;1.00;;;;;;5015702;28;20281;-78
2021/05/29 10:08:06;;;;;;;6.13;2.93;;;19.40;1.00;;;;;;5016977;28;20162;-78
2021/05/29 10:10:35;;;;;;;4.10;2.60;;;19.70;1.00;;;;;;5000112;28;20211;-79
2021/05/29 10:13:02;;;;;;;4.90;2.97;;;19.70;1.00;;;;;;4993819;28;20660;-78
2021/05/29 10:15:28;;;;;;;4.90;2.60;;;19.80;1.00;;;;;;4996310;28;20317;-81
2021/05/29 10:17:57;;;;;;;4.40;2.87;;;19.80;99.90;;;;;;5003659;28;20644;-77
2021/05/29 10:20:23;;;;;;;5.33;2.90;;;19.60;99.90;;;;;;4993954;28;20171;-78
2021/05/29 10:22:50;;;;;;;5.47;2.80;;;19.30;99.90;;;;;;4998313;28;20178;-79
2021/05/29 10:25:18;;;;;;;5.70;2.90;;;19.00;99.90;;;;;;5015925;28;20557;-78
2021/05/29 10:27:46;;;;;;;19.13;17.20;;;19.20;99.90;;;;;;5012268;28;20535;-79
2021/05/29 10:30:13;;;;;;;5.47;3.40;;;19.40;99.90;;;;;;5014118;28;20574;-78
2021/05/29 10:32:39;;;;;;;3.33;2.73;;;19.40;1.00;;;;;;5013314;28;20237;-80
2021/05/29 10:35:12;;;;;;;4.50;2.67;;;19.50;99.90;;;;;;5006276;28;20715;-80
2021/05/29 10:37:37;;;;;;;5.37;2.63;;;19.60;99.90;;;;;;4995546;28;20179;-78
2021/05/29 10:40:21;;;;;;;3.53;2.33;;;19.80;99.90;;;;;;4995569;28;20238;-78
2021/05/29 10:43:08;;;;;;;3.43;2.43;;;19.70;99.90;;;;;;4995705;28;20179;-81
2021/05/29 10:46:02;;;;;;;4.53;2.90;;;19.60;99.90;;;;;;4994081;28;20179;-80
2021/05/29 10:48:28;;;;;;;4.90;2.70;;;19.50;99.90;;;;;;4990826;28;20175;-80
2021/05/29 10:51:03;;;;;;;6.00;2.53;;;19.50;99.90;;;;;;4989052;28;20893;-79
2021/05/29 10:53:38;;;;;;;4.63;2.57;;;19.60;99.90;;;;;;4978672;28;20258;-80
2021/05/29 10:56:19;;;;;;;4.07;2.47;;;19.80;99.90;;;;;;4994138;28;20224;-81
2021/05/29 10:59:38;;;;;;;3.60;2.37;;;20.00;99.90;;;;;;4994250;28;20310;-80
2021/05/29 11:02:01;;;;;;;3.87;2.20;;;20.20;99.90;;;;;;4994585;28;20218;-79
2021/05/29 11:04:28;;;;;;;4.20;2.47;;;20.20;99.90;;;;;;4994392;28;20675;-80
2021/05/29 11:07:18;;;;;;;2.53;1.80;;;20.20;99.90;;;;;;4995442;28;20255;-80
2021/05/29 11:09:55;;;;;;;5.10;2.00;;;19.90;99.90;;;;;;4993600;28;20276;-80
2021/05/29 11:12:38;;;;;;;5.50;3.10;;;19.90;99.90;;;;;;4989824;28;20172;-81
2021/05/29 11:15:04;;;;;;;3.83;2.30;;;20.00;99.90;;;;;;4975621;28;20195;-79
2021/05/29 11:17:30;;;;;;;5.73;2.40;;;20.10;99.90;;;;;;4993907;28;20171;-80
2021/05/29 11:20:03;;;;;;;5.53;2.80;;;20.30;99.90;;;;;;4997440;28;20182;-81
2021/05/29 11:22:44;;;;;;;3.43;2.33;;;20.30;99.90;;;;;;5002816;28;20183;-81
2021/05/29 11:25:14;;;;;;;4.23;2.60;;;20.40;99.90;;;;;;4999963;28;20221;-81
2021/05/29 11:27:40;;;;;;;5.97;2.37;;;20.40;99.90;;;;;;4993881;28;20168;-77
2021/05/29 11:30:15;;;;;;;3.73;2.53;;;20.10;99.90;;;;;;4991591;28;20229;-80
2021/05/29 11:32:59;;;;;;;4.23;2.30;;;19.90;99.90;;;;;;4992401;28;20257;-80
2021/05/29 11:35:38;;;;;;;4.00;2.50;;;20.10;99.90;;;;;;4994003;28;20177;-80
2021/05/29 11:38:25;;;;;;;3.63;2.23;;;20.10;99.90;;;;;;4995124;28;20643;-81
2021/05/29 11:40:58;;;;;;;3.67;2.40;;;20.30;99.90;;;;;;4993262;28;20249;-79
2021/05/29 11:43:41;;;;;;;2.90;2.00;;;20.30;99.90;;;;;;4994561;28;20290;-79
2021/05/29 11:46:18;;;;;;;4.03;2.07;;;20.20;99.90;;;;;;4992663;28;20189;-79
2021/05/29 11:48:46;;;;;;;5.43;2.20;;;20.00;99.90;;;;;;4992467;28;20167;-80
2021/05/29 11:51:17;;;;;;;3.70;2.00;;;20.00;99.90;;;;;;4994797;28;20171;-79
2021/05/29 11:53:50;;;;;;;3.60;2.17;;;20.10;99.90;;;;;;4993583;28;20199;-79
2021/05/29 11:56:29;;;;;;;2.77;2.03;;;20.10;99.90;;;;;;4994078;28;20256;-79
2021/05/29 11:58:55;;;;;;;3.83;2.30;;;20.30;99.90;;;;;;4979612;28;20172;-79
2021/05/29 12:01:28;;;;;;;3.63;1.80;;;20.60;99.90;;;;;;4975112;28;20250;-79
2021/05/29 12:03:57;;;;;;;3.47;2.10;;;20.80;99.90;;;;;;4974607;28;20219;-80
2021/05/29 12:06:47;;;;;;;3.17;2.07;;;20.80;99.90;;;;;;4973607;28;20217;-79
2021/05/29 12:09:26;;;;;;;2.90;2.13;;;20.80;99.90;;;;;;4967843;28;20712;-80
2021/05/29 12:11:53;;;;;;;3.80;1.87;;;20.90;99.90;;;;;;4976638;28;20511;-80
2021/05/29 12:14:23;;;;;;;2.83;1.70;;;20.90;99.90;;;;;;4976895;28;20178;-80
2021/05/29 12:16:56;;;;;;;6.80;2.10;;;20.90;99.90;;;;;;4976075;28;20574;-80
2021/05/29 12:19:34;;;;;;;4.10;1.90;;;21.10;99.90;;;;;;4974823;28;20181;-79
2021/05/29 12:22:16;;;;;;;3.93;2.17;;;21.00;99.90;;;;;;4974300;28;20406;-79
2021/05/29 12:24:54;;;;;;;4.13;2.90;;;21.10;99.90;;;;;;4974002;28;20200;-80
2021/05/29 12:27:22;;;;;;;5.43;3.13;;;20.70;99.90;;;;;;4975192;28;20168;-80
2021/05/29 12:29:48;;;;;;;4.40;3.10;;;20.40;99.90;;;;;;4974123;28;20181;-79
2021/05/29 12:32:32;;;;;;;3.90;2.17;;;20.60;99.90;;;;;;4979593;28;20173;-78
2021/05/29 12:34:59;;;;;;;5.13;2.60;;;20.80;99.90;;;;;;4978037;28;20248;-78
2021/05/29 12:37:30;;;;;;;3.73;2.30;;;20.90;99.90;;;;;;4976377;28;20572;-78
2021/05/29 12:39:58;;;;;;;5.47;2.60;;;21.00;99.90;;;;;;4977448;28;20177;-81
2021/05/29 12:42:35;;;;;;;4.27;2.97;;;21.00;99.90;;;;;;4979004;28;20211;-79
2021/05/29 12:45:26;;;;;;;3.67;2.63;;;20.70;99.90;;;;;;4978153;28;20217;-80
2021/05/29 12:48:02;;;;;;;6.57;2.80;;;20.70;99.90;;;;;;4993529;28;20184;-80
2021/05/29 12:51:09;;;;;;;2.97;1.90;;;20.80;99.90;;;;;;4978357;28;20183;-79
2021/05/29 12:53:38;;;;;;;4.80;2.53;;;21.00;99.90;;;;;;4977645;28;20641;-79
2021/05/29 12:56:10;;;;;;;4.30;2.80;;;20.90;99.90;;;;;;4978651;28;20164;-79
2021/05/29 12:58:36;;;;;;;3.63;2.70;;;21.10;99.90;;;;;;4987356;28;20212;-79
2021/05/29 13:09:20;;;;;;;4.17;3.07;;;21.00;99.90;;;;;;4996243;28;20178;-79
2021/05/29 13:11:47;;;;;;;4.33;2.70;;;21.10;99.90;;;;;;4996540;28;20172;-80
2021/05/29 13:14:15;;;;;;;4.40;2.73;;;21.20;99.90;;;;;;4996599;28;20675;-80
2021/05/29 13:16:50;;;;;;;4.03;2.70;;;21.30;99.90;;;;;;4997973;28;20172;-79
2021/05/29 13:19:18;;;;;;;3.73;2.70;;;21.20;99.90;;;;;;4998302;28;20167;-79
2021/05/29 13:21:49;;;;;;;5.47;3.20;;;21.00;99.90;;;;;;4997868;28;20203;-80
2021/05/29 13:24:39;;;;;;;5.40;3.30;;;20.90;99.90;;;;;;4996717;28;20299;-80
2021/05/29 13:27:06;;;;;;;5.47;3.10;;;20.80;99.90;;;;;;4988702;28;20189;-79
2021/05/29 13:29:32;;;;;;;4.27;2.83;;;21.00;99.90;;;;;;5012483;28;20215;-78
2021/05/29 13:31:58;;;;;;;4.07;2.90;;;21.20;99.90;;;;;;4997681;28;20315;-81
2021/05/29 13:34:27;;;;;;;5.87;3.10;;;21.00;99.90;;;;;;4997163;28;20187;-79
2021/05/29 13:36:53;;;;;;;3.40;2.57;;;21.20;99.90;;;;;;4996589;28;20176;-78
2021/05/29 13:39:19;;;;;;;3.90;2.87;;;21.40;99.90;;;;;;5012707;28;20550;-79
2021/05/29 13:41:44;;;;;;;3.90;2.60;;;21.40;99.90;;;;;;4997394;28;20621;-78
2021/05/29 13:44:10;;;;;;;6.00;3.27;;;21.50;99.90;;;;;;4998959;28;20207;-79
2021/05/29 13:46:36;;;;;;;4.03;2.70;;;21.40;99.90;;;;;;4997140;28;20176;-80
2021/05/29 13:49:01;;;;;;;4.60;2.67;;;21.40;99.90;;;;;;4997330;28;20622;-78
2021/05/29 13:51:31;;;;;;;3.70;3.07;;;21.40;99.90;;;;;;4999566;28;20253;-80
2021/05/29 13:54:02;;;;;;;5.23;2.87;;;21.60;99.90;;;;;;4997833;28;20652;-79
2021/05/29 13:56:28;;;;;;;5.13;2.60;;;21.50;99.90;;;;;;4997444;28;20639;-78
2021/05/29 13:58:54;;;;;;;3.60;2.90;;;21.70;99.90;;;;;;4984622;28;20174;-81
2021/05/29 14:01:21;;;;;;;3.97;2.37;;;21.80;99.90;;;;;;4979093;28;20190;-79
2021/05/29 14:03:47;;;;;;;5.00;1.97;;;21.90;99.90;;;;;;4980712;28;20265;-79
2021/05/29 14:06:12;;;;;;;3.80;2.57;;;22.10;99.90;;;;;;4997453;28;20547;-80
2021/05/29 14:08:38;;;;;;;3.50;2.20;;;21.80;99.90;;;;;;4987428;28;20186;-80
2021/05/29 14:11:06;;;;;;;3.43;2.03;;;21.50;99.90;;;;;;4980802;28;20616;-78
2021/05/29 14:13:32;;;;;;;4.37;2.53;;;21.10;99.90;;;;;;4976099;28;20163;-79
2021/05/29 14:15:57;;;;;;;4.67;3.13;;;21.20;99.90;;;;;;4991329;28;20182;-78
2021/05/29 14:18:23;;;;;;;4.47;2.10;;;21.30;99.90;;;;;;4977640;28;20549;-79
2021/05/29 14:20:51;;;;;;;5.07;2.33;;;21.50;99.90;;;;;;4977160;28;20206;-79
2021/05/29 14:23:16;;;;;;;2.67;1.90;;;21.50;99.90;;;;;;4979031;28;20187;-78
2021/05/29 14:25:42;;;;;;;3.67;2.10;;;21.50;99.90;;;;;;4978117;28;20253;-79
2021/05/29 14:28:07;;;;;;;3.03;1.80;;;21.50;99.90;;;;;;4977114;28;20225;-79
2021/05/29 14:30:33;;;;;;;3.23;1.80;;;21.40;99.90;;;;;;4991693;28;20182;-78
2021/05/29 14:33:02;;;;;;;3.83;2.00;;;21.50;99.90;;;;;;4976296;28;20205;-79
2021/05/29 14:35:28;;;;;;;2.30;1.70;;;21.30;99.90;;;;;;4976234;28;20165;-79
2021/05/29 14:37:55;;;;;;;3.03;1.97;;;21.30;99.90;;;;;;4976727;28;20647;-79
2021/05/29 14:40:22;;;;;;;4.67;2.33;;;21.30;99.90;;;;;;4979866;28;20181;-77
2021/05/29 14:42:49;;;;;;;4.27;2.10;;;21.40;99.90;;;;;;4975995;28;20181;-79
2021/05/29 14:45:16;;;;;;;18.60;6.33;;;21.60;99.90;;;;;;4977587;28;20220;-77
2021/05/29 14:47:42;;;;;;;4.37;2.20;;;21.60;99.90;;;;;;4985968;28;20175;-80
2021/05/29 14:50:08;;;;;;;3.17;1.93;;;21.40;99.90;;;;;;4983409;28;20207;-80
2021/05/29 14:52:34;;;;;;;4.00;2.20;;;21.40;99.90;;;;;;4975756;28;20231;-78
2021/05/29 14:55:00;;;;;;;3.00;2.20;;;21.40;99.90;;;;;;4974564;28;20179;-79
2021/05/29 14:57:27;;;;;;;4.70;2.30;;;21.40;99.90;;;;;;4978263;28;20165;-80
2021/05/29 14:59:54;;;;;;;3.30;2.30;;;21.40;99.90;;;;;;4998361;28;20175;-80
2021/05/29 15:02:20;;;;;;;4.57;1.87;;;21.60;99.90;;;;;;4996096;28;20203;-79
2021/05/29 15:04:58;;;;;;;2.77;2.20;;;21.60;99.90;;;;;;4996085;28;20204;-77
2021/05/29 15:07:25;;;;;;;3.27;1.97;;;21.90;99.90;;;;;;5011390;28;20188;-78
2021/05/29 15:09:53;;;;;;;5.70;2.30;;;21.70;99.90;;;;;;4995878;28;20222;-80
2021/05/29 15:12:19;;;;;;;3.33;2.17;;;21.60;99.90;;;;;;4993926;28;20177;-79
2021/05/29 15:14:45;;;;;;;3.33;2.20;;;21.30;99.90;;;;;;4994680;28;20405;-78
2021/05/29 15:17:11;;;;;;;3.57;2.20;;;21.10;99.90;;;;;;4993866;28;20252;-79
2021/05/29 15:19:36;;;;;;;5.47;2.03;;;21.00;99.90;;;;;;5009517;28;20198;-79
2021/05/29 15:22:04;;;;;;;2.93;2.00;;;21.10;99.90;;;;;;4996027;28;20222;-79
2021/05/29 15:24:32;;;;;;;3.83;1.97;;;21.20;99.90;;;;;;4995109;28;20255;-80
2021/05/29 15:27:06;;;;;;;3.37;2.10;;;21.30;99.90;;;;;;5010330;28;20177;-79
2021/05/29 15:29:36;;;;;;;3.23;2.13;;;21.50;99.90;;;;;;4995374;28;20176;-79
2021/05/29 15:32:02;;;;;;;3.60;2.00;;;21.90;99.90;;;;;;4993162;28;20291;-79
2021/05/29 15:34:28;;;;;;;2.83;1.80;;;21.90;99.90;;;;;;4993602;28;20273;-78